createdAt,value
2018-05-24T00:01:25.535Z,82.20
2018-05-24T00:03:53.088Z,81.40
2018-05-24T00:06:20.633Z,80.30
2018-05-24T00:08:48.214Z,80.40
2018-05-24T00:11:15.789Z,81.90
2018-05-24T00:13:43.545Z,81.40
2018-05-24T00:16:11.143Z,81.10
2018-05-24T00:18:38.755Z,82.00
2018-05-24T00:21:06.329Z,82.10
2018-05-24T00:23:33.891Z,82.50
2018-05-24T00:26:01.453Z,82.20
2018-05-24T00:28:29.008Z,81.80
2018-05-24T00:30:56.588Z,82.50
2018-05-24T00:33:24.164Z,83.10
2018-05-24T00:35:51.707Z,83.30
2018-05-24T00:38:19.618Z,83.30
2018-05-24T00:40:47.192Z,84.20
2018-05-24T00:43:16.518Z,82.70
2018-05-24T00:45:44.114Z,83.90
2018-05-24T00:48:11.790Z,83.60
2018-05-24T00:50:39.529Z,82.10
2018-05-24T00:53:07.048Z,80.40
2018-05-24T00:55:40.447Z,78.70
2018-05-24T00:58:08.007Z,78.90
2018-05-24T01:00:35.589Z,79.40
2018-05-24T01:03:03.137Z,76.10
2018-05-24T01:05:30.917Z,75.30
2018-05-24T01:07:58.455Z,73.80
2018-05-24T01:10:26.059Z,72.10
2018-05-24T01:12:54.514Z,75.10
2018-05-24T01:15:22.080Z,74.90
2018-05-24T01:17:49.619Z,74.80
2018-05-24T01:20:17.390Z,74.30
2018-05-24T01:22:45.013Z,76.80
2018-05-24T01:25:12.570Z,78.60
2018-05-24T01:27:40.125Z,80.50
2018-05-24T01:30:07.712Z,81.90
2018-05-24T01:32:35.270Z,82.70
2018-05-24T01:35:02.841Z,82.80
2018-05-24T01:37:42.177Z,84.60
2018-05-24T01:40:09.747Z,84.20
2018-05-24T01:42:37.331Z,85.30
2018-05-24T01:45:05.828Z,84.70
2018-05-24T01:47:33.615Z,84.60
2018-05-24T01:50:01.168Z,85.40
2018-05-24T01:52:28.759Z,86.30
2018-05-24T01:54:56.390Z,87.10
2018-05-24T01:57:24.050Z,86.30
2018-05-24T01:59:51.576Z,87.10
2018-05-24T02:02:20.035Z,88.50
2018-05-24T02:04:47.592Z,88.50
2018-05-24T02:07:15.294Z,90.90
2018-05-24T02:09:42.833Z,91.00
2018-05-24T02:12:11.176Z,92.30
2018-05-24T02:14:38.724Z,92.00
2018-05-24T02:17:06.261Z,92.40
2018-05-24T02:19:33.840Z,92.70
2018-05-24T02:22:01.672Z,93.30
2018-05-24T02:24:29.159Z,94.30
2018-05-24T02:26:56.703Z,95.60
2018-05-24T02:29:24.269Z,96.00
2018-05-24T02:31:51.840Z,96.10
2018-05-24T02:34:19.388Z,96.10
2018-05-24T02:36:46.944Z,95.80
2018-05-24T02:39:14.605Z,95.10
2018-05-24T02:41:42.159Z,95.00
2018-05-24T02:44:09.734Z,96.60
2018-05-24T02:46:37.689Z,96.20
2018-05-24T02:49:05.461Z,95.70
2018-05-24T02:51:33.047Z,96.20
2018-05-24T02:54:00.588Z,96.20
2018-05-24T02:56:28.152Z,96.60
2018-05-24T02:58:55.697Z,96.80
2018-05-24T03:01:23.255Z,97.30
2018-05-24T03:03:50.825Z,97.40
2018-05-24T03:06:18.420Z,97.50
2018-05-24T03:08:46.205Z,98.00
2018-05-24T03:11:13.767Z,97.90
2018-05-24T03:13:41.531Z,97.90
2018-05-24T03:16:09.256Z,96.90
2018-05-24T03:18:36.913Z,97.40
2018-05-24T03:21:04.503Z,97.40
2018-05-24T03:23:32.036Z,97.60
2018-05-24T03:25:59.588Z,98.00
2018-05-24T03:28:27.130Z,98.00
2018-05-24T03:30:54.696Z,98.00
2018-05-24T03:33:22.239Z,97.50
2018-05-24T03:35:49.894Z,97.70
2018-05-24T03:38:17.452Z,97.40
2018-05-24T03:40:45.214Z,97.20
2018-05-24T03:43:12.886Z,96.60
2018-05-24T03:45:40.539Z,96.90
2018-05-24T03:48:08.165Z,97.30
2018-05-24T03:50:35.743Z,97.20
2018-05-24T03:53:03.484Z,97.50
2018-05-24T03:55:31.022Z,97.40
2018-05-24T03:57:58.572Z,97.10
2018-05-24T04:00:37.832Z,97.00
2018-05-24T04:03:17.055Z,96.70
2018-05-24T04:05:45.450Z,96.20
2018-05-24T04:08:12.964Z,96.20
2018-05-24T04:10:41.729Z,96.40
2018-05-24T04:13:09.295Z,96.70
2018-05-24T04:15:36.855Z,96.10
2018-05-24T04:18:04.440Z,95.90
2018-05-24T04:20:32.233Z,96.10
2018-05-24T04:23:00.563Z,96.50
2018-05-24T04:25:28.147Z,96.20
2018-05-24T04:27:55.734Z,96.30
2018-05-24T04:30:23.286Z,96.50
2018-05-24T04:32:50.865Z,96.40
2018-05-24T04:35:18.441Z,96.40
2018-05-24T04:37:46.126Z,96.20
2018-05-24T04:40:13.708Z,96.80
2018-05-24T04:42:42.077Z,97.50
2018-05-24T04:45:09.636Z,97.40
2018-05-24T04:47:37.199Z,97.20
2018-05-24T04:50:04.775Z,97.20
2018-05-24T04:52:32.347Z,97.20
2018-05-24T04:54:59.948Z,97.00
2018-05-24T04:57:28.284Z,97.30
2018-05-24T04:59:55.855Z,97.30
2018-05-24T05:02:24.171Z,97.80
2018-05-24T05:04:51.889Z,97.80
2018-05-24T05:07:20.197Z,97.50
2018-05-24T05:09:47.758Z,97.50
2018-05-24T05:12:15.319Z,97.50
2018-05-24T05:14:42.893Z,97.50
2018-05-24T05:17:10.446Z,96.90
2018-05-24T05:19:38.356Z,96.90
2018-05-24T05:22:05.909Z,96.10
2018-05-24T05:24:33.546Z,95.90
2018-05-24T05:27:01.175Z,96.40
2018-05-24T05:29:28.919Z,95.60
2018-05-24T05:31:56.491Z,96.30
2018-05-24T05:34:24.069Z,96.90
2018-05-24T05:36:51.729Z,96.00
2018-05-24T05:39:19.305Z,96.90
2018-05-24T05:41:46.958Z,96.80
2018-05-24T05:44:14.528Z,96.80
2018-05-24T05:46:42.111Z,96.90
2018-05-24T05:49:09.753Z,96.80
2018-05-24T05:51:37.316Z,96.90
2018-05-24T05:54:04.904Z,97.00
2018-05-24T05:56:32.471Z,96.30
2018-05-24T05:59:00.804Z,96.10
2018-05-24T06:01:28.382Z,96.10
2018-05-24T06:03:55.927Z,96.00
2018-05-24T06:06:23.528Z,95.30
2018-05-24T06:08:51.104Z,95.40
2018-05-24T06:11:19.429Z,95.20
2018-05-24T06:13:47.059Z,95.20
2018-05-24T06:16:14.623Z,95.20
2018-05-24T06:18:42.214Z,94.40
2018-05-24T06:21:09.777Z,93.90
2018-05-24T06:23:37.375Z,94.20
2018-05-24T06:26:04.933Z,94.50
2018-05-24T06:28:33.451Z,94.30
2018-05-24T06:31:00.859Z,94.30
2018-05-24T06:33:28.423Z,93.90
2018-05-24T06:35:56.180Z,93.40
2018-05-24T06:38:24.531Z,94.10
2018-05-24T06:40:52.101Z,93.80
2018-05-24T06:43:19.675Z,93.60
2018-05-24T06:45:49.018Z,92.80
2018-05-24T06:48:16.604Z,92.90
2018-05-24T06:50:44.192Z,92.30
2018-05-24T06:53:11.799Z,91.30
2018-05-24T06:55:39.535Z,91.00
2018-05-24T06:58:07.852Z,90.80
2018-05-24T07:00:35.515Z,90.80
2018-05-24T07:03:03.079Z,88.90
2018-05-24T07:05:30.675Z,89.30
2018-05-24T07:08:05.225Z,87.40
2018-05-24T07:10:32.813Z,87.50
2018-05-24T07:13:00.451Z,85.40
2018-05-24T07:15:28.229Z,87.10
2018-05-24T07:17:55.808Z,88.60
2018-05-24T07:20:23.397Z,86.40
2018-05-24T07:22:50.953Z,85.10
2018-05-24T07:27:39.327Z,86.20
2018-05-24T07:30:07.705Z,84.00
2018-05-24T07:32:36.127Z,81.20
2018-05-24T07:35:03.705Z,81.10
2018-05-24T07:37:32.040Z,80.20
2018-05-24T07:39:59.929Z,80.20
2018-05-24T07:42:27.526Z,78.80
2018-05-24T07:44:55.092Z,79.70
2018-05-24T07:47:22.673Z,79.00
2018-05-24T07:49:50.250Z,81.10
2018-05-24T07:52:18.616Z,77.40
2018-05-24T07:54:46.232Z,77.40
2018-05-24T07:57:13.790Z,74.50
2018-05-24T07:59:41.371Z,72.90
2018-05-24T08:02:08.974Z,72.60
2018-05-24T08:04:36.558Z,74.20
2018-05-24T08:07:04.174Z,71.70
2018-05-24T08:09:31.782Z,71.60
2018-05-24T08:11:59.363Z,72.90
2018-05-24T08:14:26.890Z,71.90
2018-05-24T08:16:54.478Z,72.50
2018-05-24T08:19:22.055Z,72.20
2018-05-24T08:21:49.674Z,72.10
2018-05-24T08:24:17.360Z,70.20
2018-05-24T08:26:44.908Z,69.20
2018-05-24T08:29:12.516Z,69.10
2018-05-24T08:31:41.332Z,69.60
2018-05-24T08:34:09.095Z,69.60
2018-05-24T08:36:36.640Z,66.90
2018-05-24T08:39:05.137Z,66.50
2018-05-24T08:41:32.716Z,66.80
2018-05-24T08:44:00.496Z,66.40
2018-05-24T08:46:28.135Z,64.70
2018-05-24T08:48:55.737Z,68.20
2018-05-24T08:51:23.283Z,65.40
2018-05-24T08:53:50.904Z,64.20
2018-05-24T08:56:18.566Z,62.70
2018-05-24T08:58:46.156Z,60.20
2018-05-24T09:01:13.783Z,58.80
2018-05-24T09:03:41.388Z,60.70
2018-05-24T09:06:08.990Z,59.80
2018-05-24T09:08:36.625Z,59.70
2018-05-24T09:11:05.003Z,58.80
2018-05-24T09:13:33.395Z,58.90
2018-05-24T09:16:01.825Z,58.20
2018-05-24T09:18:29.597Z,58.20
2018-05-24T09:20:57.335Z,57.40
2018-05-24T09:23:24.948Z,56.80
2018-05-24T09:25:52.551Z,56.60
2018-05-24T09:28:20.322Z,54.90
2018-05-24T09:30:47.906Z,55.50
2018-05-24T09:33:15.591Z,53.70
2018-05-24T09:35:43.331Z,52.20
2018-05-24T09:38:11.040Z,52.30
2018-05-24T09:40:39.382Z,52.50
2018-05-24T09:43:08.478Z,51.70
2018-05-24T09:45:36.078Z,51.70
2018-05-24T09:48:03.673Z,51.10
2018-05-24T09:50:31.216Z,52.00
2018-05-24T09:52:58.856Z,52.40
2018-05-24T09:55:26.466Z,52.40
2018-05-24T09:57:53.955Z,52.90
2018-05-24T10:00:23.223Z,53.30
2018-05-24T10:02:50.798Z,53.20
2018-05-24T10:05:18.947Z,53.80
2018-05-24T10:07:46.689Z,53.50
2018-05-24T10:10:14.294Z,54.00
2018-05-24T10:12:42.045Z,54.20
2018-05-24T10:15:09.674Z,55.10
2018-05-24T10:17:37.262Z,56.90
2018-05-24T10:20:04.859Z,56.80
2018-05-24T10:22:32.621Z,56.60
2018-05-24T10:25:01.013Z,55.70
2018-05-24T10:27:28.584Z,55.80
2018-05-24T10:29:56.934Z,57.80
2018-05-24T10:32:24.485Z,57.80
2018-05-24T10:34:52.045Z,58.60
2018-05-24T10:37:20.017Z,59.90
2018-05-24T10:39:47.621Z,63.20
2018-05-24T10:42:15.282Z,64.50
2018-05-24T10:44:42.848Z,67.70
2018-05-24T10:47:11.110Z,69.30
2018-05-24T10:49:38.885Z,69.80
2018-05-24T10:52:06.421Z,71.00
2018-05-24T10:54:34.041Z,71.60
2018-05-24T10:57:01.615Z,73.90
2018-05-24T10:59:29.358Z,75.10
2018-05-24T11:01:56.922Z,75.60
2018-05-24T11:04:24.512Z,75.20
2018-05-24T11:06:52.830Z,75.20
2018-05-24T11:09:20.469Z,74.70
2018-05-24T11:11:48.116Z,75.10
2018-05-24T11:14:15.618Z,76.40
2018-05-24T11:16:43.417Z,76.40
2018-05-24T11:19:11.083Z,76.90
2018-05-24T11:21:38.689Z,78.10
2018-05-24T11:24:06.254Z,79.60
2018-05-24T11:26:33.814Z,85.00
2018-05-24T11:29:01.410Z,87.20
2018-05-24T11:31:28.982Z,89.20
2018-05-24T11:33:57.325Z,90.80
2018-05-24T11:36:25.274Z,90.80
2018-05-24T11:38:52.834Z,91.50
2018-05-24T11:41:20.549Z,90.90
2018-05-24T11:43:48.235Z,91.30
2018-05-24T11:46:15.777Z,91.90
2018-05-24T11:48:44.339Z,91.90
2018-05-24T11:51:12.109Z,91.70
2018-05-24T11:53:39.684Z,92.40
2018-05-24T11:56:07.498Z,92.20
2018-05-24T11:58:35.281Z,92.90
2018-05-24T12:01:02.854Z,92.70
2018-05-24T12:03:30.439Z,91.90
2018-05-24T12:05:58.790Z,92.40
2018-05-24T12:08:26.699Z,92.40
2018-05-24T12:10:54.270Z,92.00
2018-05-24T12:13:21.905Z,92.60
2018-05-24T12:15:50.513Z,93.20
2018-05-24T12:18:18.184Z,93.20
2018-05-24T12:20:45.797Z,92.90
2018-05-24T12:23:13.363Z,91.80
2018-05-24T12:25:41.676Z,91.00
2018-05-24T12:28:09.265Z,91.00
2018-05-24T12:30:36.822Z,91.30
2018-05-24T12:33:04.403Z,91.60
2018-05-24T12:35:32.184Z,91.30
2018-05-24T12:37:59.678Z,91.60
2018-05-24T12:40:27.424Z,90.70
2018-05-24T12:42:55.036Z,91.00
2018-05-24T12:45:22.617Z,90.60
2018-05-24T12:47:50.529Z,88.70
2018-05-24T12:50:18.322Z,86.10
2018-05-24T12:52:45.883Z,84.30
2018-05-24T12:55:13.612Z,86.70
2018-05-24T12:57:41.192Z,87.70
2018-05-24T13:00:08.968Z,85.20
2018-05-24T13:02:36.548Z,86.10
2018-05-24T13:05:04.153Z,88.70
2018-05-24T13:07:31.737Z,88.90
2018-05-24T13:10:00.109Z,90.00
2018-05-24T13:12:27.725Z,90.00
2018-05-24T13:14:56.090Z,89.50
2018-05-24T13:17:23.687Z,89.50
2018-05-24T13:19:51.278Z,90.00
2018-05-24T13:22:18.855Z,90.00
2018-05-24T13:24:46.482Z,90.60
2018-05-24T13:27:14.068Z,90.30
2018-05-24T13:29:41.824Z,90.40
2018-05-24T13:32:09.457Z,90.40
2018-05-24T13:34:37.142Z,90.70
2018-05-24T13:37:04.751Z,90.60
2018-05-24T13:39:32.646Z,90.00
2018-05-24T13:42:00.219Z,89.80
2018-05-24T13:44:27.806Z,87.70
2018-05-24T13:46:55.591Z,87.40
2018-05-24T13:49:23.308Z,88.50
2018-05-24T13:51:51.099Z,88.30
2018-05-24T13:54:18.671Z,87.70
2018-05-24T13:56:46.276Z,86.80
2018-05-24T13:59:13.899Z,85.80
2018-05-24T14:01:41.668Z,87.00
2018-05-24T14:04:09.243Z,87.80
2018-05-24T14:09:05.946Z,88.40
2018-05-24T14:11:33.579Z,88.40
2018-05-24T14:14:01.172Z,89.30
2018-05-24T14:16:28.776Z,89.90
2018-05-24T14:18:57.235Z,90.20
2018-05-24T14:21:24.827Z,90.50
2018-05-24T14:23:52.495Z,90.10
2018-05-24T14:26:20.078Z,90.60
2018-05-24T14:28:47.689Z,90.30
2018-05-24T14:31:16.044Z,90.10
2018-05-24T14:33:44.423Z,90.50
2018-05-24T14:36:12.122Z,90.50
2018-05-24T14:38:39.829Z,90.00
2018-05-24T14:41:07.611Z,89.20
2018-05-24T14:43:35.185Z,90.00
2018-05-24T14:46:03.096Z,89.70
2018-05-24T14:48:30.660Z,88.30
2018-05-24T14:50:58.314Z,88.80
2018-05-24T14:53:26.065Z,88.70
2018-05-24T14:55:53.673Z,88.70
2018-05-24T14:58:21.305Z,87.50
2018-05-24T15:00:48.927Z,86.90
2018-05-24T15:03:21.813Z,85.10
2018-05-24T15:05:50.184Z,84.10
2018-05-24T15:08:18.583Z,84.00
2018-05-24T15:10:46.185Z,84.00
2018-05-24T15:13:25.526Z,83.90
2018-05-24T15:15:53.099Z,84.70
2018-05-24T15:18:20.779Z,85.00
2018-05-24T15:20:49.184Z,85.10
2018-05-24T15:23:16.781Z,85.10
2018-05-24T15:25:44.372Z,83.90
2018-05-24T15:28:13.038Z,83.70
2018-05-24T15:30:40.687Z,83.70
2018-05-24T15:33:08.361Z,84.50
2018-05-24T15:35:36.111Z,83.90
2018-05-24T15:38:03.739Z,85.60
2018-05-24T15:40:31.349Z,82.80
2018-05-24T15:42:58.970Z,84.20
2018-05-24T15:45:26.593Z,85.60
2018-05-24T15:47:54.187Z,85.30
2018-05-24T15:50:21.871Z,84.40
2018-05-24T15:52:49.448Z,85.20
2018-05-24T15:55:17.046Z,85.10
2018-05-24T15:57:44.653Z,86.20
2018-05-24T16:00:12.286Z,86.20
2018-05-24T16:02:39.869Z,85.10
2018-05-24T16:05:07.541Z,86.40
2018-05-24T16:07:35.318Z,85.50
2018-05-24T16:10:03.442Z,86.00
2018-05-24T16:12:31.089Z,85.20
2018-05-24T16:14:59.013Z,85.70
2018-05-24T16:17:27.427Z,85.10
2018-05-24T16:19:55.110Z,85.10
2018-05-24T16:22:22.992Z,86.80
2018-05-24T16:24:50.589Z,86.00
2018-05-24T16:27:18.505Z,86.50
2018-05-24T16:29:46.085Z,87.00
2018-05-24T16:32:13.739Z,86.50
2018-05-24T16:34:41.620Z,87.60
2018-05-24T16:37:09.252Z,86.50
2018-05-24T16:39:36.836Z,86.30
2018-05-24T16:42:04.454Z,87.40
2018-05-24T16:44:32.126Z,88.10
2018-05-24T16:46:59.919Z,87.60
2018-05-24T16:49:27.600Z,88.10
2018-05-24T16:51:55.393Z,87.70
2018-05-24T16:54:23.862Z,85.90
2018-05-24T16:56:51.497Z,85.90
2018-05-24T16:59:19.094Z,85.80
2018-05-24T17:01:46.714Z,85.60
2018-05-24T17:04:14.340Z,84.90
2018-05-24T17:06:41.949Z,83.50
2018-05-24T17:09:09.622Z,84.10
2018-05-24T17:11:37.249Z,84.40
2018-05-24T17:14:04.915Z,85.30
2018-05-24T17:16:32.565Z,86.60
2018-05-24T17:19:00.288Z,86.00
2018-05-24T17:21:28.673Z,87.00
2018-05-24T17:23:56.651Z,87.00
2018-05-24T17:26:24.231Z,85.70
2018-05-24T17:28:52.918Z,87.00
2018-05-24T17:31:20.508Z,87.00
2018-05-24T17:33:48.144Z,86.70
2018-05-24T17:36:15.728Z,87.60
2018-05-24T17:38:43.567Z,88.30
2018-05-24T17:41:11.188Z,87.90
2018-05-24T17:43:38.859Z,87.30
2018-05-24T17:46:06.679Z,88.00
2018-05-24T17:48:34.336Z,87.90
2018-05-24T17:51:02.448Z,88.80
2018-05-24T17:53:30.069Z,88.60
2018-05-24T17:55:57.723Z,89.20
2018-05-24T17:58:25.369Z,88.80
2018-05-24T18:00:52.995Z,89.50
2018-05-24T18:03:21.439Z,89.80
2018-05-24T18:05:49.029Z,89.70
2018-05-24T18:08:16.868Z,90.00
2018-05-24T18:10:44.616Z,89.50
2018-05-24T18:13:12.233Z,90.00
2018-05-24T18:15:40.014Z,90.50
2018-05-24T18:18:07.674Z,90.30
2018-05-24T18:20:35.502Z,90.10
2018-05-24T18:23:04.008Z,90.40
2018-05-24T18:25:32.585Z,90.30
2018-05-24T18:28:00.316Z,90.30
2018-05-24T18:30:27.967Z,90.20
2018-05-24T18:32:55.589Z,90.10
2018-05-24T18:35:23.190Z,90.20
2018-05-24T18:37:50.860Z,90.30
2018-05-24T18:40:20.042Z,90.40
2018-05-24T18:42:47.941Z,90.40
2018-05-24T18:45:15.634Z,90.50
2018-05-24T18:47:43.434Z,90.20
2018-05-24T18:50:11.164Z,90.50
2018-05-24T18:52:39.056Z,90.40
2018-05-24T18:55:06.810Z,90.90
2018-05-24T18:57:34.414Z,91.10
2018-05-24T19:00:02.045Z,91.20
2018-05-24T19:02:29.986Z,91.30
2018-05-24T19:04:57.817Z,91.20
2018-05-24T19:07:25.430Z,91.10
2018-05-24T19:09:53.024Z,91.20
2018-05-24T19:12:20.637Z,91.20
2018-05-24T19:14:48.228Z,91.10
2018-05-24T19:17:17.348Z,91.50
2018-05-24T19:19:45.326Z,91.50
2018-05-24T19:22:13.676Z,90.90
2018-05-24T19:24:41.486Z,90.90
2018-05-24T19:27:09.136Z,91.00
2018-05-24T19:29:37.552Z,91.20
2018-05-24T19:32:05.540Z,91.20
2018-05-24T19:34:33.324Z,91.40
2018-05-24T19:37:01.165Z,91.00
2018-05-24T19:39:28.827Z,90.70
2018-05-24T19:41:56.448Z,91.00
2018-05-24T19:44:24.929Z,90.90
2018-05-24T19:46:52.578Z,91.40
2018-05-24T19:49:20.203Z,90.90
2018-05-24T19:51:47.830Z,91.20
2018-05-24T19:54:15.480Z,91.50
2018-05-24T19:56:43.148Z,91.60
2018-05-24T19:59:10.798Z,91.70
2018-05-24T20:01:38.661Z,91.60
2018-05-24T20:04:06.296Z,91.50
2018-05-24T20:06:34.737Z,91.90
2018-05-24T20:09:02.560Z,91.80
2018-05-24T20:11:30.307Z,92.20
2018-05-24T20:13:57.946Z,92.20
2018-05-24T20:16:25.543Z,92.10
2018-05-24T20:18:53.226Z,91.70
2018-05-24T20:21:20.827Z,91.70
2018-05-24T20:23:49.198Z,92.10
2018-05-24T20:26:16.969Z,91.70
2018-05-24T20:28:44.546Z,91.50
2018-05-24T20:31:13.145Z,91.60
2018-05-24T20:33:40.894Z,91.60
2018-05-24T20:36:09.316Z,91.80
2018-05-24T20:38:37.161Z,91.80
2018-05-24T20:41:04.748Z,91.50
2018-05-24T20:43:32.381Z,91.40
2018-05-24T20:45:59.985Z,91.70
2018-05-24T20:48:28.374Z,91.90
2018-05-24T20:50:55.937Z,91.80
2018-05-24T20:53:23.727Z,91.80
2018-05-24T20:55:51.505Z,91.80
2018-05-24T20:58:19.860Z,91.90
2018-05-24T21:00:47.486Z,91.90
2018-05-24T21:03:15.119Z,92.00
2018-05-24T21:05:42.705Z,92.00
2018-05-24T21:08:10.360Z,92.20
2018-05-24T21:10:37.985Z,92.10
2018-05-24T21:13:05.603Z,92.10
2018-05-24T21:15:33.266Z,92.10
2018-05-24T21:18:00.857Z,92.10
2018-05-24T21:20:29.203Z,92.30
2018-05-24T21:22:56.778Z,92.30
2018-05-24T21:25:24.404Z,92.50
2018-05-24T21:27:52.044Z,92.30
2018-05-24T21:30:19.899Z,92.10
2018-05-24T21:32:47.457Z,92.30
2018-05-24T21:35:15.045Z,92.60
2018-05-24T21:37:42.741Z,92.50
2018-05-24T21:40:10.286Z,92.50
2018-05-24T21:42:37.908Z,92.70
2018-05-24T21:45:05.501Z,92.80
2018-05-24T21:47:33.335Z,93.30
2018-05-24T21:50:00.929Z,93.40
2018-05-24T21:52:28.500Z,93.20
2018-05-24T21:54:56.116Z,93.60
2018-05-24T21:57:23.746Z,93.60
2018-05-24T21:59:51.337Z,93.60
2018-05-24T22:02:19.099Z,93.30
2018-05-24T22:04:46.817Z,93.10
2018-05-24T22:07:14.420Z,93.20
2018-05-24T22:09:42.356Z,93.50
2018-05-24T22:12:10.709Z,93.30
2018-05-24T22:14:39.148Z,93.40
2018-05-24T22:17:06.783Z,93.40
2018-05-24T22:19:34.345Z,93.30
2018-05-24T22:22:02.153Z,93.40
2018-05-24T22:24:29.757Z,93.50
2018-05-24T22:26:58.134Z,93.80
2018-05-24T22:29:25.747Z,93.70
2018-05-24T22:31:53.331Z,93.70
2018-05-24T22:34:20.933Z,93.80
2018-05-24T22:36:48.716Z,93.90
2018-05-24T22:39:16.310Z,94.10
2018-05-24T22:41:43.924Z,94.40
2018-05-24T22:44:11.482Z,94.20
2018-05-24T22:46:39.056Z,94.30
2018-05-24T22:49:06.656Z,94.50
2018-05-24T22:51:34.307Z,94.70
2018-05-24T22:54:01.878Z,94.80
2018-05-24T22:56:29.544Z,94.70
2018-05-24T22:58:57.099Z,94.80
2018-05-24T23:01:26.220Z,95.00
2018-05-24T23:03:53.810Z,95.00
2018-05-24T23:06:21.781Z,94.60
2018-05-24T23:08:49.357Z,94.20
2018-05-24T23:11:16.959Z,94.20
2018-05-24T23:13:44.626Z,94.30
2018-05-24T23:16:13.029Z,93.70
2018-05-24T23:18:40.572Z,93.70
2018-05-24T23:21:08.207Z,93.60
2018-05-24T23:23:36.681Z,94.50
2018-05-24T23:26:04.259Z,94.50
2018-05-24T23:28:31.869Z,94.70
2018-05-24T23:30:59.445Z,94.80
2018-05-24T23:33:27.049Z,95.00
2018-05-24T23:35:54.670Z,95.30
2018-05-24T23:38:22.240Z,95.70
2018-05-24T23:40:49.813Z,96.40
2018-05-24T23:43:17.519Z,96.50
2018-05-24T23:45:45.107Z,96.70
2018-05-24T23:48:12.712Z,96.70
2018-05-24T23:50:40.440Z,96.90
2018-05-24T23:53:07.992Z,97.10
2018-05-24T23:55:35.704Z,96.90
2018-05-24T23:58:03.276Z,97.20
